Time;durP1;ratioP1;P1;durP2;ratioP2;P2;SDS_P1;SDS_P2;PMS_P1;PMS_P2;Temp;Humidity;BMP_temperature;BMP_pressure;BME280_temperature;BME280_humidity;BME280_pressure;Samples;Min_cycle;Max_cycle;Signal;HPM_P1;HPM_P2
2023/06/16 00:01:41;;;;;;;6.32;5.50;;;16.00;62.40;;;15.11;69.79;95962.22;4951625;28;20035;-69
2023/06/16 00:04:08;;;;;;;11.10;5.63;;;16.10;62.50;;;15.11;69.56;95966.72;4917128;28;20032;-70
2023/06/16 00:06:34;;;;;;;10.10;6.05;;;16.00;62.30;;;15.09;69.50;95958.97;4957550;28;20040;-70
2023/06/16 00:09:03;;;;;;;6.65;5.70;;;16.00;62.20;;;15.06;68.58;95966.56;4918025;29;20039;-70
2023/06/16 00:11:29;;;;;;;6.28;5.32;;;16.00;62.40;;;15.04;68.89;95966.78;4965579;28;20038;-70
2023/06/16 00:13:56;;;;;;;8.38;5.75;;;16.00;62.60;;;15.00;70.02;95965.63;4933717;28;20408;-69
2023/06/16 00:16:22;;;;;;;7.93;5.95;;;15.90;62.80;;;15.00;69.75;95966.41;4956237;28;20495;-70
2023/06/16 00:18:52;;;;;;;10.20;5.90;;;16.00;62.90;;;15.00;70.20;95976.22;4952555;28;20541;-70
2023/06/16 00:21:25;;;;;;;7.60;5.78;;;15.90;63.10;;;14.95;69.78;95968.13;4940990;28;20036;-69
2023/06/16 00:23:54;;;;;;;7.05;5.85;;;15.80;63.50;;;14.91;72.03;95966.91;4964501;28;20057;-69
2023/06/16 00:26:20;;;;;;;6.70;5.97;;;15.80;63.80;;;14.85;70.96;95973.09;4918594;28;20032;-70
2023/06/16 00:28:46;;;;;;;7.57;6.38;;;15.70;64.40;;;14.80;70.78;95965.00;4935485;28;20030;-70
2023/06/16 00:31:11;;;;;;;7.40;5.82;;;15.70;64.20;;;14.77;72.30;95962.78;4916939;28;20028;-70
2023/06/16 00:33:37;;;;;;;6.88;6.03;;;15.60;64.40;;;14.72;72.03;95960.81;4951090;28;20034;-71
2023/06/16 00:36:03;;;;;;;6.45;5.70;;;15.60;64.60;;;14.68;72.47;95963.03;4940296;28;20023;-70
2023/06/16 00:38:29;;;;;;;8.68;5.88;;;15.60;64.70;;;14.63;72.22;95960.25;4952466;28;20398;-71
2023/06/16 00:40:54;;;;;;;7.03;6.07;;;15.60;64.80;;;14.61;72.16;95956.22;4953457;28;20491;-70
2023/06/16 00:43:20;;;;;;;9.48;6.03;;;15.50;64.60;;;14.58;72.45;95952.16;4941145;28;20057;-70
2023/06/16 00:45:50;;;;;;;7.90;6.05;;;15.60;64.60;;;14.56;73.90;95958.69;4946779;28;20120;-70
2023/06/16 00:48:16;;;;;;;8.85;6.50;;;15.50;64.80;;;14.52;73.05;95958.31;4942186;28;20574;-69
2023/06/16 00:50:41;;;;;;;6.85;6.15;;;15.40;64.90;;;14.49;72.26;95956.13;4960837;28;20032;-70
2023/06/16 00:53:07;;;;;;;6.85;5.85;;;15.40;64.90;;;14.45;72.30;95948.81;4972031;28;20471;-70
2023/06/16 00:55:33;;;;;;;8.32;6.22;;;15.40;65.00;;;14.41;73.48;95951.03;4964206;28;20523;-70
2023/06/16 00:57:59;;;;;;;8.60;6.38;;;15.30;65.10;;;14.36;72.42;95942.94;4944461;28;20566;-70
2023/06/16 01:00:25;;;;;;;8.32;6.35;;;15.30;65.00;;;14.34;73.01;95939.72;4933893;29;20570;-70
2023/06/16 01:02:53;;;;;;;7.43;6.13;;;15.30;65.00;;;14.32;73.99;95947.88;4950933;28;20039;-69
2023/06/16 01:05:23;;;;;;;7.90;6.53;;;15.30;65.20;;;14.29;73.61;95947.50;4956211;28;20032;-70
2023/06/16 01:08:11;;;;;;;7.80;6.07;;;15.30;65.00;;;14.25;73.99;95954.22;4937401;28;20504;-69
2023/06/16 01:11:27;;;;;;;7.18;6.20;;;15.10;64.80;;;14.21;74.29;95951.19;4960658;28;20027;-70
2023/06/16 01:14:19;;;;;;;8.10;6.03;;;15.10;64.90;;;14.15;75.47;95956.53;4947005;28;20035;-70
2023/06/16 01:16:46;;;;;;;6.40;5.80;;;15.10;65.00;;;14.09;73.20;95956.38;4950785;28;20135;-69
2023/06/16 01:19:22;;;;;;;7.47;5.35;;;15.00;65.20;;;14.08;75.52;95957.41;4916038;28;20127;-70
2023/06/16 01:22:06;;;;;;;8.38;5.88;;;15.00;65.50;;;14.03;74.49;95953.75;4934206;28;20479;-70
2023/06/16 01:24:33;;;;;;;7.30;5.97;;;15.00;65.60;;;14.00;73.91;95952.34;4920018;28;20102;-70
2023/06/16 01:27:02;;;;;;;6.78;6.07;;;15.00;65.70;;;13.97;74.86;95955.44;4947530;28;20085;-70
2023/06/16 01:29:27;;;;;;;8.40;6.18;;;14.90;65.90;;;13.94;73.62;95950.56;4932518;28;20035;-70
2023/06/16 01:31:57;;;;;;;8.82;6.30;;;14.90;65.90;;;13.92;75.31;95947.34;4934385;28;20095;-69
2023/06/16 01:34:22;;;;;;;8.52;6.38;;;14.90;66.10;;;13.89;75.18;95947.78;4917403;28;20520;-69
2023/06/16 01:36:48;;;;;;;7.05;6.35;;;14.90;66.20;;;13.84;75.32;95942.31;4935836;28;20090;-70
2023/06/16 01:39:15;;;;;;;6.88;6.07;;;14.80;66.40;;;13.81;75.45;95942.75;4915898;28;20059;-70
2023/06/16 01:41:41;;;;;;;6.85;6.25;;;14.80;66.70;;;13.77;75.67;95938.88;4949991;28;20122;-70
2023/06/16 01:44:06;;;;;;;7.07;6.40;;;14.70;66.90;;;13.74;76.70;95940.13;4915497;29;20035;-69
2023/06/16 01:46:32;;;;;;;6.97;6.20;;;14.70;67.20;;;13.71;76.55;95940.53;4935214;28;20039;-69
2023/06/16 01:48:58;;;;;;;6.90;6.20;;;14.70;67.40;;;13.70;77.25;95935.47;4953715;28;20026;-69
2023/06/16 01:51:24;;;;;;;8.90;5.90;;;14.70;67.40;;;13.69;76.59;95947.06;4951392;28;20033;-69
2023/06/16 01:53:52;;;;;;;6.80;6.10;;;14.70;67.50;;;13.65;76.88;95945.88;4933722;28;20056;-70
2023/06/16 01:56:17;;;;;;;7.38;6.38;;;14.60;67.50;;;13.63;76.69;95943.44;4942587;28;20035;-70
2023/06/16 01:58:43;;;;;;;8.98;7.00;;;14.60;68.00;;;13.60;77.85;95943.88;4948754;28;20490;-69
2023/06/16 02:01:20;;;;;;;8.68;7.00;;;14.60;68.00;;;13.59;79.35;95946.72;4960414;28;20503;-70
2023/06/16 02:03:59;;;;;;;11.05;7.88;;;14.60;68.40;;;13.55;80.27;95948.97;4943197;28;20043;-69
2023/06/16 02:06:28;;;;;;;8.80;7.22;;;14.50;68.80;;;13.51;79.69;95946.94;4949704;28;20439;-69
2023/06/16 02:08:56;;;;;;;9.20;7.18;;;14.50;69.00;;;13.49;79.95;95958.53;4936380;28;20023;-69
2023/06/16 02:11:22;;;;;;;9.48;7.07;;;14.50;68.90;;;13.46;79.31;95951.03;4957201;28;20106;-69
2023/06/16 02:13:48;;;;;;;10.77;7.68;;;14.40;69.20;;;13.42;79.27;95944.56;4949586;28;20035;-69
2023/06/16 02:16:14;;;;;;;12.07;6.82;;;14.50;69.00;;;13.40;79.92;95943.97;4921452;29;20078;-70
2023/06/16 02:18:40;;;;;;;8.93;7.15;;;14.40;69.10;;;13.39;78.80;95947.63;4943372;28;20435;-70
2023/06/16 02:21:05;;;;;;;9.18;7.22;;;14.40;68.40;;;13.39;79.78;95942.34;4920691;29;20110;-69
2023/06/16 02:23:31;;;;;;;9.70;7.32;;;14.40;68.20;;;13.40;79.32;95943.97;4965232;28;20069;-70
2023/06/16 02:25:57;;;;;;;8.50;7.28;;;14.50;68.40;;;13.42;79.71;95941.13;4956608;28;20082;-70
2023/06/16 02:28:22;;;;;;;9.05;7.43;;;14.50;68.30;;;13.42;79.00;95941.91;4970131;28;20039;-70
2023/06/16 02:30:48;;;;;;;11.43;7.35;;;14.50;68.00;;;13.45;79.11;95936.22;4936971;29;20035;-70
2023/06/16 02:33:15;;;;;;;9.85;8.07;;;14.60;67.80;;;13.47;78.57;95939.44;4961399;28;20077;-70
2023/06/16 02:35:41;;;;;;;12.73;9.13;;;14.60;67.90;;;13.49;78.50;95945.34;4958827;28;20034;-70
2023/06/16 02:38:07;;;;;;;12.77;10.93;;;14.70;67.90;;;13.52;79.87;95945.94;4960221;28;20395;-69
2023/06/16 02:40:33;;;;;;;9.73;8.35;;;14.60;68.00;;;13.56;78.96;95936.56;4940488;28;20059;-70
2023/06/16 02:42:59;;;;;;;12.60;9.40;;;14.70;67.40;;;13.57;78.54;95935.53;4953771;28;20028;-70
2023/06/16 02:45:25;;;;;;;9.73;8.73;;;14.70;67.40;;;13.58;78.16;95939.78;4937341;28;20032;-69
2023/06/16 02:47:50;;;;;;;10.40;7.40;;;14.70;66.90;;;13.57;78.54;95933.69;4937361;28;20126;-70
2023/06/16 02:50:16;;;;;;;8.77;6.80;;;14.70;66.80;;;13.58;77.63;95940.63;4918359;28;20032;-69
2023/06/16 02:52:42;;;;;;;10.88;6.95;;;14.70;66.80;;;13.58;78.72;95945.06;4937395;28;20602;-70
2023/06/16 02:55:09;;;;;;;9.45;7.07;;;14.70;67.00;;;13.57;79.05;95939.00;4953488;28;20023;-70
2023/06/16 02:57:35;;;;;;;8.95;6.95;;;14.70;67.10;;;13.54;79.03;95949.16;4953034;28;20031;-70
2023/06/16 03:00:01;;;;;;;10.48;8.00;;;14.60;67.40;;;13.52;78.69;95941.47;4936738;28;20086;-70
2023/06/16 03:02:26;;;;;;;9.35;7.30;;;14.60;67.70;;;13.48;79.25;95948.19;4934448;29;20118;-69
2023/06/16 03:04:52;;;;;;;9.48;7.43;;;14.60;68.10;;;13.41;79.81;95942.13;4934748;29;20035;-70
2023/06/16 03:07:19;;;;;;;7.70;6.95;;;14.60;68.30;;;13.36;80.44;95947.25;4948781;29;20031;-69
2023/06/16 03:09:46;;;;;;;9.00;7.75;;;14.50;68.60;;;13.34;80.47;95950.06;4931897;28;20647;-69
2023/06/16 03:12:12;;;;;;;10.88;7.45;;;14.50;68.70;;;13.31;80.34;95949.69;4945696;29;20567;-69
2023/06/16 03:14:37;;;;;;;8.15;7.28;;;14.40;68.80;;;13.28;80.79;95948.28;4933503;29;20043;-71
2023/06/16 03:17:03;;;;;;;8.90;7.57;;;14.40;68.90;;;13.26;81.08;95957.44;4961605;28;20078;-70
2023/06/16 03:19:29;;;;;;;8.70;6.72;;;14.30;68.90;;;13.20;81.16;95956.44;4938875;28;20078;-70
2023/06/16 03:21:55;;;;;;;8.95;8.07;;;14.20;68.90;;;13.17;80.33;95959.47;4961432;28;20047;-69
2023/06/16 03:24:21;;;;;;;11.20;9.20;;;14.20;69.00;;;13.15;80.85;95961.50;4930347;28;20086;-68
2023/06/16 03:26:47;;;;;;;11.10;9.07;;;14.20;69.40;;;13.12;81.26;95956.63;4970043;28;20046;-68
2023/06/16 03:29:12;;;;;;;14.75;11.20;;;14.20;69.40;;;13.08;82.20;95968.63;4949386;28;20032;-69
2023/06/16 03:31:39;;;;;;;23.02;18.70;;;14.20;69.70;;;13.08;81.91;95968.63;4951261;28;20039;-69
2023/06/16 03:34:05;;;;;;;11.30;10.07;;;14.20;69.90;;;13.05;81.88;95972.50;4931634;28;20024;-67
2023/06/16 03:36:35;;;;;;;9.02;7.93;;;14.20;69.50;;;13.02;82.27;95972.91;4962437;28;20046;-68
2023/06/16 03:39:05;;;;;;;11.63;9.30;;;14.20;69.30;;;13.01;82.96;95970.47;4960514;28;20050;-71
2023/06/16 03:41:33;;;;;;;9.23;7.82;;;14.10;69.80;;;12.98;82.43;95974.34;4936215;28;20430;-69
2023/06/16 03:43:59;;;;;;;10.70;7.40;;;14.10;69.60;;;12.95;82.42;95971.31;4935943;28;20081;-73
2023/06/16 03:46:27;;;;;;;8.13;7.30;;;14.10;69.70;;;12.94;82.76;95977.59;4936264;28;20035;-73
2023/06/16 03:48:52;;;;;;;12.48;9.20;;;14.10;69.70;;;12.92;81.98;95971.72;4952099;28;20574;-69
2023/06/16 03:51:18;;;;;;;15.20;11.45;;;14.10;69.60;;;12.93;83.02;95968.06;4952118;28;20031;-68
2023/06/16 03:53:44;;;;;;;16.45;13.02;;;14.10;69.50;;;12.92;82.76;95971.72;4935537;28;20051;-68
2023/06/16 03:56:09;;;;;;;19.83;14.80;;;14.10;69.50;;;12.92;82.87;95974.38;4936609;28;20051;-68
2023/06/16 03:58:36;;;;;;;31.25;23.67;;;14.20;69.50;;;12.93;83.00;95981.25;4951697;28;20035;-68
2023/06/16 04:01:02;;;;;;;12.95;9.98;;;14.20;69.50;;;12.96;83.16;95988.78;4936373;28;20031;-68
2023/06/16 04:03:28;;;;;;;25.13;21.92;;;14.20;69.70;;;12.97;83.85;95991.19;4919892;28;20405;-68
2023/06/16 04:05:53;;;;;;;23.85;20.45;;;14.20;69.90;;;12.96;83.11;95991.41;4952666;28;20027;-68
2023/06/16 04:08:20;;;;;;;9.80;8.45;;;14.20;70.00;;;12.96;84.37;95992.22;4937416;28;20047;-68
2023/06/16 04:10:46;;;;;;;8.57;7.43;;;14.20;70.00;;;12.99;84.62;96004.19;4950394;28;20155;-69
2023/06/16 04:13:12;;;;;;;9.93;6.85;;;14.30;70.00;;;13.01;84.05;96002.16;4936014;28;20070;-68
2023/06/16 04:15:38;;;;;;;9.45;7.05;;;14.20;70.20;;;12.99;84.25;96009.47;4951041;28;20046;-68
2023/06/16 04:18:03;;;;;;;7.95;6.82;;;14.30;70.20;;;13.02;85.20;96015.16;4952046;28;20031;-69
2023/06/16 04:20:29;;;;;;;10.45;7.38;;;14.30;70.50;;;13.05;85.03;96008.66;4917354;28;20067;-68
2023/06/16 04:22:55;;;;;;;12.68;7.18;;;14.40;70.40;;;13.11;85.63;96018.38;4935793;28;20028;-68
2023/06/16 04:25:22;;;;;;;9.32;7.00;;;14.50;70.20;;;13.15;84.62;96017.78;4935762;28;20054;-69
2023/06/16 04:27:49;;;;;;;9.05;7.20;;;14.60;69.80;;;13.17;85.61;96012.28;4949862;28;20399;-68
2023/06/16 04:30:20;;;;;;;8.05;6.63;;;14.60;69.50;;;13.25;84.93;96013.91;4916951;29;20031;-68
2023/06/16 04:32:46;;;;;;;9.20;6.72;;;14.70;68.90;;;13.30;84.96;96006.97;4938883;28;20031;-68
2023/06/16 04:35:11;;;;;;;9.55;7.00;;;14.70;68.70;;;13.36;83.98;96000.88;4952790;28;20436;-68
2023/06/16 04:37:37;;;;;;;7.72;6.63;;;14.80;68.30;;;13.44;82.95;95998.00;4937371;28;20087;-68
2023/06/16 04:40:05;;;;;;;8.02;6.38;;;14.90;68.10;;;13.52;82.85;95998.78;4935627;28;20032;-67
2023/06/16 04:42:30;;;;;;;11.10;6.93;;;15.00;68.00;;;13.57;83.50;95996.31;4919784;28;20086;-69
2023/06/16 04:44:57;;;;;;;8.85;7.00;;;15.00;68.60;;;13.62;82.82;95993.88;4951228;28;20035;-68
2023/06/16 04:47:23;;;;;;;10.10;7.25;;;15.00;68.20;;;13.67;82.86;95996.69;4916417;28;20036;-70
2023/06/16 04:49:49;;;;;;;9.65;7.00;;;15.10;68.10;;;13.74;81.88;95998.28;4934319;28;20102;-69
2023/06/16 04:52:15;;;;;;;8.43;7.05;;;15.10;67.30;;;13.81;83.00;96000.91;4951401;28;20503;-68
2023/06/16 04:54:41;;;;;;;10.00;7.00;;;15.20;67.50;;;13.90;82.54;95996.97;4933377;28;20036;-71
2023/06/16 04:57:07;;;;;;;9.88;7.22;;;15.30;67.10;;;13.96;82.27;95985.53;4935306;28;20039;-67
2023/06/16 04:59:33;;;;;;;10.45;7.88;;;15.40;67.30;;;14.01;82.01;95998.94;4917102;28;20067;-68
2023/06/16 05:01:59;;;;;;;12.23;7.75;;;15.50;66.60;;;14.08;81.74;95996.28;4946730;28;20373;-67
2023/06/16 05:04:24;;;;;;;8.85;7.57;;;15.50;66.40;;;14.15;81.08;95988.28;4954018;28;20458;-73
2023/06/16 05:06:50;;;;;;;10.93;7.82;;;15.60;66.50;;;14.21;81.96;95988.22;4935245;28;20122;-68
2023/06/16 05:09:16;;;;;;;10.45;7.50;;;15.70;66.10;;;14.28;79.77;95985.56;4952918;28;20027;-66
2023/06/16 05:11:42;;;;;;;15.38;9.07;;;15.70;64.30;;;14.35;79.30;95988.97;4966365;28;20031;-65
2023/06/16 05:14:08;;;;;;;22.08;10.73;;;15.90;64.90;;;14.42;79.54;95995.00;4922990;28;20450;-68
2023/06/16 05:16:34;;;;;;;8.20;7.00;;;16.00;65.40;;;14.49;77.68;95995.81;4941769;28;20040;-63
2023/06/16 05:18:59;;;;;;;9.63;7.40;;;16.00;63.50;;;14.55;77.94;95997.59;4938219;28;20024;-68
2023/06/16 05:21:25;;;;;;;9.60;7.20;;;16.10;63.80;;;14.62;76.73;95990.41;4975051;28;20035;-68
2023/06/16 05:23:54;;;;;;;11.85;6.97;;;16.10;63.60;;;14.67;78.37;95998.50;4951760;28;20039;-65
2023/06/16 05:26:23;;;;;;;8.02;6.72;;;16.10;64.60;;;14.76;77.30;95996.41;4933554;28;20031;-65
2023/06/16 05:28:49;;;;;;;9.10;6.70;;;16.30;63.80;;;14.84;76.61;95992.66;4945730;28;20376;-69
2023/06/16 05:31:15;;;;;;;14.73;12.45;;;16.40;62.20;;;14.91;76.58;95999.50;4934636;28;20582;-68
2023/06/16 05:33:41;;;;;;;9.07;6.97;;;16.50;62.90;;;14.99;75.94;95990.47;4913904;28;20039;-68
2023/06/16 05:36:07;;;;;;;9.93;6.80;;;16.60;62.20;;;15.07;74.91;95998.13;4938171;28;20023;-67
2023/06/16 05:38:33;;;;;;;28.55;23.50;;;16.60;61.50;;;15.17;75.21;95997.66;4951263;28;20125;-72
2023/06/16 05:40:58;;;;;;;10.38;8.70;;;16.80;62.60;;;15.29;75.91;95995.88;4923931;28;20035;-72
2023/06/16 05:43:24;;;;;;;8.80;7.20;;;16.90;61.40;;;15.38;73.05;95993.72;4950157;28;20038;-68
2023/06/16 05:45:50;;;;;;;7.15;6.20;;;17.00;59.20;;;15.48;73.41;95994.03;4949144;28;20035;-67
2023/06/16 05:48:16;;;;;;;10.82;6.80;;;17.20;59.50;;;15.57;72.45;95987.38;4949348;28;20537;-71
2023/06/16 05:50:41;;;;;;;10.07;6.53;;;17.30;59.20;;;15.69;72.36;95992.78;4940856;28;20074;-71
2023/06/16 05:53:07;;;;;;;7.95;6.40;;;17.40;59.20;;;15.79;72.63;95991.22;4950086;28;20456;-71
2023/06/16 05:55:33;;;;;;;8.88;6.00;;;17.60;58.90;;;15.93;72.35;96003.28;4948506;28;20039;-71
2023/06/16 05:58:00;;;;;;;9.35;6.22;;;17.70;59.70;;;16.09;72.86;95995.72;4964869;28;20075;-70
2023/06/16 06:00:26;;;;;;;7.90;5.70;;;18.00;60.30;;;16.23;72.40;95992.63;4961065;28;20034;-69
2023/06/16 06:02:52;;;;;;;9.10;6.28;;;18.10;58.10;;;16.38;71.17;95994.88;4964273;28;20138;-67
2023/06/16 06:05:18;;;;;;;11.52;6.18;;;18.30;57.30;;;16.54;70.43;95996.06;4948342;28;20035;-67
2023/06/16 06:07:43;;;;;;;9.27;6.05;;;18.60;56.70;;;16.71;70.23;95993.56;4967216;28;20050;-67
2023/06/16 06:10:10;;;;;;;8.23;6.30;;;18.70;56.50;;;16.88;70.01;96005.13;4955560;28;20291;-66
2023/06/16 06:12:37;;;;;;;10.80;6.07;;;18.80;56.10;;;17.04;68.89;95999.13;4955504;28;20033;-70
2023/06/16 06:15:03;;;;;;;7.57;5.65;;;19.00;54.10;;;17.21;68.06;96004.56;4952739;28;20105;-67
2023/06/16 06:17:29;;;;;;;8.93;6.40;;;19.20;54.40;;;17.42;68.79;96011.09;4968113;28;20117;-73
2023/06/16 06:19:55;;;;;;;10.23;6.07;;;19.40;54.90;;;17.58;68.33;96009.56;4950571;28;20476;-69
2023/06/16 06:22:20;;;;;;;7.82;6.35;;;19.60;55.00;;;17.73;67.74;96010.72;4953277;28;20376;-67
2023/06/16 06:24:46;;;;;;;8.18;6.65;;;19.80;54.80;;;17.88;67.47;96006.72;4952858;28;20026;-68
2023/06/16 06:27:12;;;;;;;8.82;6.72;;;19.90;53.90;;;18.00;66.85;96008.31;4944812;28;20030;-69
2023/06/16 06:29:38;;;;;;;14.38;7.05;;;20.10;53.60;;;18.13;66.00;96011.75;4968177;28;20133;-68
2023/06/16 06:32:08;;;;;;;7.38;6.40;;;20.20;52.90;;;18.22;64.55;96010.31;4963217;28;20538;-67
2023/06/16 06:34:34;;;;;;;12.82;6.45;;;20.40;52.90;;;18.31;65.71;96009.66;4951810;28;20023;-66
2023/06/16 06:37:00;;;;;;;7.00;6.28;;;20.60;53.50;;;18.42;65.71;96013.34;4967097;28;20047;-67
2023/06/16 06:39:26;;;;;;;9.80;6.45;;;20.60;53.20;;;18.50;64.54;96012.94;4951889;28;20400;-72
2023/06/16 06:41:51;;;;;;;6.20;5.60;;;20.70;51.70;;;18.61;64.77;96019.25;4943949;28;20110;-66
2023/06/16 06:44:17;;;;;;;8.10;6.10;;;21.00;52.30;;;18.74;64.66;96020.81;4951792;28;20078;-67
2023/06/16 06:46:43;;;;;;;7.18;6.20;;;21.10;51.50;;;18.88;64.78;96019.44;4934990;28;20071;-67
2023/06/16 06:49:09;;;;;;;7.32;5.60;;;21.30;51.30;;;19.03;64.40;96018.88;4967132;28;20078;-67
2023/06/16 06:51:35;;;;;;;6.70;5.78;;;21.50;51.20;;;19.16;63.50;96016.66;4972510;28;20056;-68
2023/06/16 06:54:01;;;;;;;7.47;5.70;;;21.60;50.50;;;19.31;63.26;96018.75;4953546;28;20034;-67
2023/06/16 06:56:27;;;;;;;8.55;5.65;;;21.80;50.00;;;19.44;62.45;96013.06;4959522;28;20037;-68
2023/06/16 06:58:52;;;;;;;9.40;5.78;;;22.10;49.10;;;19.57;62.10;96010.06;4954627;28;20115;-69
2023/06/16 07:01:18;;;;;;;9.57;5.38;;;22.10;49.20;;;19.77;61.83;96012.19;4939916;29;20028;-67
2023/06/16 07:03:44;;;;;;;6.78;5.80;;;22.50;49.40;;;19.96;61.19;96014.53;4957897;28;20515;-67
2023/06/16 07:06:10;;;;;;;9.98;6.05;;;22.60;47.50;;;20.05;60.42;96008.50;4950337;28;20086;-67
2023/06/16 07:08:37;;;;;;;5.85;5.25;;;22.60;47.60;;;20.17;60.03;96019.84;4972293;28;20491;-67
2023/06/16 07:11:03;;;;;;;10.05;5.10;;;22.80;47.30;;;20.28;59.37;96019.94;4971026;28;20584;-67
2023/06/16 07:13:29;;;;;;;10.63;5.25;;;22.90;46.90;;;20.42;59.03;96015.84;4967576;28;20030;-67
2023/06/16 07:15:55;;;;;;;7.38;4.63;;;23.10;46.80;;;20.58;58.58;96017.59;4982964;28;20071;-67
2023/06/16 07:18:20;;;;;;;5.88;4.53;;;23.30;45.80;;;20.73;58.18;96015.06;4952174;28;20499;-67
2023/06/16 07:20:46;;;;;;;10.00;5.03;;;23.60;46.10;;;20.93;57.96;96016.28;4965466;28;20039;-68
2023/06/16 07:23:12;;;;;;;9.93;4.30;;;23.70;46.10;;;21.06;57.03;96013.19;4954620;28;20046;-68
2023/06/16 07:25:38;;;;;;;8.52;4.75;;;23.80;44.70;;;21.22;56.09;96006.84;4954463;28;20118;-66
2023/06/16 07:28:07;;;;;;;5.95;4.60;;;24.10;43.80;;;21.37;54.96;96006.97;4970920;28;20031;-64
2023/06/16 07:30:35;;;;;;;4.80;4.27;;;24.30;43.60;;;21.53;55.23;96007.06;4956159;28;20489;-67
2023/06/16 07:33:01;;;;;;;6.13;3.83;;;24.60;42.70;;;21.66;53.90;96011.94;4968156;28;20089;-67
2023/06/16 07:35:26;;;;;;;5.53;4.07;;;24.70;42.40;;;21.72;53.46;96008.19;4955328;28;20463;-67
2023/06/16 07:37:52;;;;;;;6.28;4.03;;;24.60;42.40;;;21.90;53.37;96007.75;4952793;28;20134;-67
2023/06/16 07:40:18;;;;;;;8.32;4.57;;;25.00;42.30;;;22.10;53.18;96011.59;4970924;28;20074;-67
2023/06/16 07:42:45;;;;;;;7.25;4.13;;;25.10;42.30;;;22.29;52.62;96004.69;4956268;28;20494;-65
2023/06/16 07:45:12;;;;;;;7.03;3.85;;;25.50;40.40;;;22.44;52.67;96002.03;4955355;28;20022;-67
2023/06/16 07:47:39;;;;;;;6.15;4.20;;;25.70;40.90;;;22.62;51.45;95998.81;4954902;28;20026;-67
2023/06/16 07:50:06;;;;;;;5.13;4.20;;;25.90;40.10;;;22.80;50.90;95994.00;4960968;28;20511;-66
2023/06/16 07:52:32;;;;;;;6.50;3.83;;;26.00;39.50;;;22.95;49.49;95985.19;4969945;28;20117;-67
2023/06/16 07:54:58;;;;;;;6.93;3.70;;;26.10;38.40;;;23.08;48.09;95980.03;4966303;28;20077;-68
2023/06/16 07:57:24;;;;;;;5.60;4.30;;;26.10;37.70;;;23.21;47.61;95982.19;4970632;28;20379;-68
2023/06/16 07:59:49;;;;;;;7.75;4.30;;;26.30;38.40;;;23.33;47.15;95979.22;4951939;28;20035;-65
2023/06/16 08:02:15;;;;;;;5.85;3.40;;;26.30;37.10;;;23.44;46.53;95974.59;4951533;28;20034;-68
2023/06/16 08:04:41;;;;;;;4.05;3.60;;;26.50;37.20;;;23.57;46.63;95970.59;4968065;28;20407;-66
2023/06/16 08:07:06;;;;;;;5.03;3.80;;;26.70;37.10;;;23.70;45.59;95970.78;4949956;28;20092;-66
2023/06/16 08:09:32;;;;;;;8.70;3.65;;;26.80;37.00;;;23.83;46.63;95974.78;4952206;28;20035;-68
2023/06/16 08:11:58;;;;;;;6.85;4.03;;;26.80;38.20;;;23.94;45.85;95972.81;4952930;28;20581;-67
2023/06/16 08:14:24;;;;;;;6.90;3.80;;;26.80;36.70;;;24.05;45.84;95971.72;4954679;28;20895;-67
2023/06/16 08:16:50;;;;;;;7.07;3.83;;;27.00;36.90;;;24.17;44.90;95964.09;4954767;28;20081;-68
2023/06/16 08:19:15;;;;;;;11.90;3.97;;;27.10;36.70;;;24.29;44.79;95971.88;4953422;28;20062;-72
2023/06/16 08:21:41;;;;;;;6.97;4.03;;;26.80;37.10;;;24.32;44.11;95972.09;4946949;28;20057;-72
2023/06/16 08:24:07;;;;;;;4.40;3.28;;;26.70;37.00;;;24.38;44.03;95960.22;4950973;28;20058;-67
2023/06/16 08:26:32;;;;;;;4.90;3.70;;;26.90;37.00;;;24.39;43.67;95961.84;4963869;28;20039;-64
2023/06/16 08:28:59;;;;;;;4.50;3.38;;;26.80;37.00;;;24.43;44.07;95957.50;4967480;28;20487;-63
2023/06/16 08:31:27;;;;;;;5.40;3.60;;;27.00;36.60;;;24.53;43.12;95951.25;4950540;28;20049;-65
2023/06/16 08:33:54;;;;;;;6.68;3.78;;;27.40;35.70;;;24.69;42.47;95943.88;4965189;28;20534;-65
2023/06/16 08:36:21;;;;;;;5.20;3.42;;;27.70;34.30;;;24.87;42.42;95940.47;4963857;28;20027;-66
2023/06/16 08:38:48;;;;;;;4.70;3.47;;;28.20;35.10;;;25.11;42.27;95939.72;4969096;28;20035;-67
2023/06/16 08:41:16;;;;;;;4.88;3.35;;;28.30;33.70;;;25.22;41.62;95941.25;4954779;28;20018;-67
2023/06/16 08:43:41;;;;;;;8.57;3.13;;;28.00;34.10;;;25.23;41.29;95937.47;4958651;28;20022;-67
2023/06/16 08:46:08;;;;;;;7.13;3.28;;;27.90;34.30;;;25.19;40.72;95934.53;4969207;28;20035;-68
2023/06/16 08:48:36;;;;;;;6.43;4.20;;;27.60;34.40;;;25.17;40.81;95925.16;4960728;28;20059;-68
2023/06/16 08:51:03;;;;;;;5.55;4.35;;;27.30;33.70;;;25.17;39.98;95922.47;4951748;28;20019;-67
2023/06/16 08:53:33;;;;;;;5.80;3.50;;;27.50;34.50;;;25.24;39.91;95925.59;4964603;28;20066;-68
2023/06/16 08:56:02;;;;;;;6.53;3.33;;;27.90;34.70;;;25.25;39.29;95913.75;4966160;28;20011;-68
2023/06/16 08:58:31;;;;;;;8.00;3.80;;;27.50;34.00;;;25.12;39.65;95917.09;4952457;28;20034;-67
2023/06/16 09:00:58;;;;;;;5.68;3.60;;;27.10;35.30;;;24.95;39.94;95925.59;4969323;28;20109;-68
2023/06/16 09:03:26;;;;;;;5.60;3.45;;;26.70;35.60;;;24.76;40.62;95930.09;4976867;23;20470;-66
2023/06/16 09:05:52;;;;;;;5.57;3.45;;;26.30;36.60;;;24.53;40.36;95934.31;4981013;28;20034;-65
2023/06/16 09:08:20;;;;;;;11.18;4.85;;;25.90;37.00;;;24.34;40.63;95932.31;4987208;28;20040;-66
2023/06/16 09:10:54;;;;;;;6.35;3.85;;;25.70;37.40;;;24.19;40.02;95921.63;4974943;28;20035;-66
2023/06/16 09:13:20;;;;;;;7.68;3.40;;;25.60;36.80;;;24.02;39.99;95924.69;5006549;28;20026;-66
2023/06/16 09:15:47;;;;;;;7.18;3.10;;;25.40;36.80;;;23.92;40.19;95918.56;4990270;28;20034;-64
2023/06/16 09:18:15;;;;;;;4.80;3.55;;;25.30;37.00;;;23.90;39.99;95921.53;4970693;28;20064;-65
2023/06/16 09:20:41;;;;;;;5.13;3.58;;;25.80;36.30;;;24.00;40.23;95920.69;5008269;28;20457;-66
2023/06/16 09:23:08;;;;;;;7.55;3.45;;;25.90;36.80;;;24.06;40.04;95914.19;4977721;28;20022;-66
2023/06/16 09:25:34;;;;;;;7.05;3.40;;;26.00;36.70;;;24.02;40.01;95908.59;5001227;28;20025;-66
2023/06/16 09:28:07;;;;;;;5.22;3.60;;;25.80;36.00;;;24.01;40.54;95914.22;4992079;28;20022;-66
2023/06/16 09:30:35;;;;;;;5.13;3.25;;;25.70;37.00;;;23.98;41.80;95920.13;5008984;28;20026;-66
2023/06/16 09:33:02;;;;;;;4.35;3.30;;;25.80;38.70;;;23.90;42.01;95921.53;5004549;28;20050;-65
2023/06/16 09:35:29;;;;;;;6.82;3.88;;;25.60;40.00;;;23.80;41.92;95917.03;4988011;28;20030;-66
2023/06/16 09:37:57;;;;;;;7.68;3.60;;;25.50;38.60;;;23.71;41.77;95907.13;4991624;28;20030;-67
2023/06/16 09:40:31;;;;;;;5.43;3.50;;;25.30;38.40;;;23.63;41.06;95905.84;4991504;28;20033;-68
2023/06/16 09:43:00;;;;;;;9.30;3.80;;;25.20;37.60;;;23.53;40.27;95898.59;4991842;28;20044;-66
2023/06/16 09:45:32;;;;;;;8.70;3.55;;;25.00;36.90;;;23.45;39.36;95887.63;4986654;28;20030;-65
2023/06/16 09:48:05;;;;;;;7.53;3.95;;;24.90;36.70;;;23.41;40.20;95895.44;4991458;28;20030;-65
2023/06/16 09:50:31;;;;;;;6.22;3.25;;;24.90;38.30;;;23.37;40.39;95902.44;5005939;28;20027;-65
2023/06/16 09:52:58;;;;;;;7.13;3.00;;;24.90;37.50;;;23.37;40.03;95897.06;4988887;28;20052;-65
2023/06/16 09:55:27;;;;;;;5.45;3.15;;;25.00;36.40;;;23.61;39.57;95894.56;4991469;28;20469;-66
2023/06/16 09:57:53;;;;;;;4.45;3.30;;;25.90;35.60;;;23.79;38.98;95885.88;4992754;28;20117;-66
2023/06/16 10:00:18;;;;;;;4.90;3.40;;;26.00;34.40;;;24.05;39.50;95874.97;4992605;28;20401;-65
2023/06/16 10:02:49;;;;;;;4.70;2.83;;;26.90;34.40;;;24.59;38.46;95864.06;4993513;28;20119;-65
2023/06/16 10:05:18;;;;;;;6.40;3.10;;;28.20;32.10;;;25.33;38.43;95867.31;4976616;28;20036;-66
2023/06/16 10:07:59;;;;;;;6.07;3.20;;;29.70;31.00;;;26.29;37.27;95861.72;5008459;28;20025;-66
2023/06/16 10:10:29;;;;;;;3.25;2.95;;;31.00;29.90;;;27.06;37.30;95865.53;5008367;28;20374;-67
2023/06/16 10:12:56;;;;;;;5.95;3.13;;;31.80;28.20;;;27.91;37.44;95858.66;4992631;28;20485;-65
2023/06/16 10:15:28;;;;;;;5.15;2.90;;;32.70;28.00;;;28.22;33.38;95810.03;4991444;28;20048;-66
2023/06/16 10:17:55;;;;;;;4.88;3.05;;;31.80;27.00;;;28.32;35.45;95836.91;5008438;28;20038;-66